createdAt,value
2023-01-08T00:02:25.936Z,100383.50
2023-01-08T00:04:57.461Z,100380.84
2023-01-08T00:07:29.427Z,100374.72
2023-01-08T00:10:00.984Z,100364.75
2023-01-08T00:12:32.936Z,100354.94
2023-01-08T00:15:04.514Z,100365.97
2023-01-08T00:17:36.402Z,100361.91
2023-01-08T00:20:07.923Z,100361.31
2023-01-08T00:22:39.810Z,100369.69
2023-01-08T00:25:11.329Z,100363.56
2023-01-08T00:27:43.209Z,100357.66
2023-01-08T00:30:14.857Z,100351.53
2023-01-08T00:32:46.593Z,100338.91
2023-01-08T00:35:18.390Z,100345.81
2023-01-08T00:37:49.921Z,100334.81
2023-01-08T00:40:21.539Z,100326.84
2023-01-08T00:42:53.083Z,100319.94
2023-01-08T00:45:25.055Z,100324.63
2023-01-08T00:47:56.657Z,100329.13
2023-01-08T00:50:28.513Z,100331.78
2023-01-08T00:53:00.828Z,100320.78
2023-01-08T00:55:32.734Z,100199.81
2023-01-08T00:58:04.295Z,100321.22
2023-01-08T01:00:36.159Z,100316.75
2023-01-08T01:03:07.730Z,100319.19
2023-01-08T01:05:39.715Z,100308.16
2023-01-08T01:08:11.306Z,100304.91
2023-01-08T01:10:43.164Z,100302.88
2023-01-08T01:13:14.735Z,100294.09
2023-01-08T01:15:46.556Z,100301.25
2023-01-08T01:18:18.139Z,100309.19
2023-01-08T01:20:50.113Z,100307.38
2023-01-08T01:23:21.728Z,100304.91
2023-01-08T01:25:54.938Z,100312.06
2023-01-08T01:28:26.531Z,100301.88
2023-01-08T01:30:58.558Z,100298.22
2023-01-08T01:33:30.194Z,100296.16
2023-01-08T01:36:02.318Z,100305.34
2023-01-08T01:38:33.886Z,100302.91
2023-01-08T01:41:05.664Z,100302.69
2023-01-08T01:43:37.229Z,100301.66
2023-01-08T01:46:09.184Z,100295.97
2023-01-08T01:48:40.768Z,100297.59
2023-01-08T01:51:12.684Z,100301.66
2023-01-08T01:53:44.229Z,100277.22
2023-01-08T01:56:16.127Z,100264.59
2023-01-08T01:58:47.657Z,100271.13
2023-01-08T02:01:19.783Z,100276.81
2023-01-08T02:03:51.753Z,100281.72
2023-01-08T02:06:23.328Z,100273.97
2023-01-08T02:08:55.069Z,100267.44
2023-01-08T02:11:26.661Z,100266.44
2023-01-08T02:13:58.501Z,100155.19
2023-01-08T02:16:30.222Z,100273.31
2023-01-08T02:19:02.139Z,100265.78
2023-01-08T02:21:33.706Z,100248.69
2023-01-08T02:24:05.791Z,100258.06
2023-01-08T02:26:37.318Z,100238.50
2023-01-08T02:29:09.156Z,100226.69
2023-01-08T02:31:40.808Z,100231.56
2023-01-08T02:34:12.833Z,100235.84
2023-01-08T02:36:44.464Z,100224.44
2023-01-08T02:39:16.814Z,100227.91
2023-01-08T02:41:48.516Z,100231.78
2023-01-08T02:44:20.482Z,100220.97
2023-01-08T02:46:52.067Z,100214.22
2023-01-08T02:49:23.932Z,100219.31
2023-01-08T02:51:55.439Z,100214.81
2023-01-08T02:54:27.485Z,100210.34
2023-01-08T02:56:59.016Z,100207.69
2023-01-08T02:59:30.949Z,100203.41
2023-01-08T03:02:02.518Z,100201.19
2023-01-08T03:04:34.599Z,100196.69
2023-01-08T03:07:06.141Z,100193.44
2023-01-08T03:09:38.077Z,100182.84
2023-01-08T03:12:09.969Z,100188.34
2023-01-08T03:14:41.827Z,100185.28
2023-01-08T03:17:13.417Z,100192.81
2023-01-08T03:19:45.383Z,100178.78
2023-01-08T03:22:16.942Z,100194.47
2023-01-08T03:24:48.917Z,100178.38
2023-01-08T03:27:20.445Z,100164.34
2023-01-08T03:29:52.405Z,100165.56
2023-01-08T03:32:23.926Z,100160.28
2023-01-08T03:34:55.497Z,100177.56
2023-01-08T03:37:27.128Z,100167.81
2023-01-08T03:39:59.121Z,100157.22
2023-01-08T03:42:30.686Z,100162.72
2023-01-08T03:45:02.614Z,100152.53
2023-01-08T03:47:34.135Z,100148.47
2023-01-08T03:50:05.973Z,100158.63
2023-01-08T03:52:37.528Z,100170.22
2023-01-08T03:55:09.488Z,100177.56
2023-01-08T03:57:41.108Z,100168.41
2023-01-08T04:00:12.977Z,100174.50
2023-01-08T04:02:44.599Z,100172.88
2023-01-08T04:05:16.552Z,100166.56
2023-01-08T04:07:48.097Z,100170.03
2023-01-08T04:10:19.955Z,100167.81
2023-01-08T04:12:51.561Z,100167.81
2023-01-08T04:15:23.457Z,100174.31
2023-01-08T04:17:55.014Z,100164.75
2023-01-08T04:20:26.891Z,100163.53
2023-01-08T04:22:58.413Z,100170.22
2023-01-08T04:25:30.326Z,100160.47
2023-01-08T04:28:01.905Z,100155.78
2023-01-08T04:30:33.730Z,100165.75
2023-01-08T04:33:05.617Z,100159.03
2023-01-08T04:35:37.145Z,100145.22
2023-01-08T04:38:10.886Z,100137.28
2023-01-08T04:40:43.104Z,100136.47
2023-01-08T04:43:15.037Z,100146.22
2023-01-08T04:45:46.610Z,100141.13
2023-01-08T04:48:18.491Z,100128.50
2023-01-08T04:50:51.174Z,100126.06
2023-01-08T04:53:23.027Z,100139.47
2023-01-08T04:55:54.724Z,100136.63
2023-01-08T04:58:26.813Z,100141.91
2023-01-08T05:00:58.385Z,100135.41
2023-01-08T05:03:30.351Z,100135.84
2023-01-08T05:06:01.896Z,100120.78
2023-01-08T05:08:33.714Z,100131.94
2023-01-08T05:11:05.227Z,100131.19
2023-01-08T05:13:37.194Z,100118.34
2023-01-08T05:16:08.800Z,100127.31
2023-01-08T05:18:40.736Z,100114.91
2023-01-08T05:21:13.274Z,100126.09
2023-01-08T05:23:45.212Z,100121.81
2023-01-08T05:26:16.880Z,100118.75
2023-01-08T05:28:48.776Z,100128.31
2023-01-08T05:31:20.437Z,100116.53
2023-01-08T05:33:52.421Z,100118.34
2023-01-08T05:36:23.949Z,100120.00
2023-01-08T05:38:55.893Z,100102.09
2023-01-08T05:41:27.455Z,100101.88
2023-01-08T05:43:59.377Z,100103.31
2023-01-08T05:46:30.955Z,100107.97
2023-01-08T05:49:02.924Z,100103.50
2023-01-08T05:51:34.492Z,100103.09
2023-01-08T05:54:06.364Z,100104.91
2023-01-08T05:56:38.175Z,100101.09
2023-01-08T05:59:10.192Z,100096.84
2023-01-08T06:01:41.792Z,100098.47
2023-01-08T06:04:13.917Z,100123.28
2023-01-08T06:06:45.534Z,100089.91
2023-01-08T06:09:17.365Z,100091.91
2023-01-08T06:11:48.959Z,100082.16
2023-01-08T06:14:20.697Z,100072.38
2023-01-08T06:16:52.248Z,100074.84
2023-01-08T06:19:24.504Z,100072.59
2023-01-08T06:21:56.058Z,100069.13
2023-01-08T06:24:27.980Z,100081.34
2023-01-08T06:26:59.517Z,100083.78
2023-01-08T06:29:31.485Z,100073.38
2023-01-08T06:32:03.069Z,100081.91
2023-01-08T06:34:34.979Z,100077.84
2023-01-08T06:37:06.549Z,100073.16
2023-01-08T06:39:38.256Z,100071.50
2023-01-08T06:42:09.851Z,100071.28
2023-01-08T06:44:41.821Z,100072.69
2023-01-08T06:47:13.363Z,100073.50
2023-01-08T06:49:45.407Z,100077.56
2023-01-08T06:52:16.980Z,100073.88
2023-01-08T06:54:48.983Z,100075.69
2023-01-08T06:57:20.584Z,100082.22
2023-01-08T06:59:52.600Z,100081.97
2023-01-08T07:02:25.661Z,100073.81
2023-01-08T07:04:57.841Z,100080.09
2023-01-08T07:07:29.382Z,100077.84
2023-01-08T07:10:01.291Z,100078.00
2023-01-08T07:12:32.861Z,100077.19
2023-01-08T07:15:04.422Z,100073.75
2023-01-08T07:17:35.975Z,100074.56
2023-01-08T07:20:07.927Z,100075.75
2023-01-08T07:22:39.469Z,100078.41
2023-01-08T07:25:11.468Z,100086.31
2023-01-08T07:27:43.153Z,100089.38
2023-01-08T07:30:28.735Z,100090.22
2023-01-08T07:33:00.674Z,100091.22
2023-01-08T07:35:32.801Z,100087.38
2023-01-08T07:38:04.409Z,100087.81
2023-01-08T07:40:38.501Z,100090.06
2023-01-08T07:43:12.623Z,100097.19
2023-01-08T07:45:44.459Z,100087.25
2023-01-08T07:48:16.502Z,100089.06
2023-01-08T07:50:48.677Z,100084.81
2023-01-08T07:53:20.336Z,100081.94
2023-01-08T07:55:52.424Z,100089.72
2023-01-08T07:58:23.948Z,100085.38
2023-01-08T08:00:57.697Z,100072.13
2023-01-08T08:03:30.632Z,100065.63
2023-01-08T08:06:02.565Z,100067.84
2023-01-08T08:08:34.347Z,100062.16
2023-01-08T08:11:06.265Z,100055.78
2023-01-08T08:13:42.489Z,100069.03
2023-01-08T08:16:14.536Z,100088.44
2023-01-08T08:18:46.193Z,100075.22
2023-01-08T08:21:18.297Z,100071.13
2023-01-08T08:23:49.870Z,100069.06
2023-01-08T08:26:21.853Z,100068.88
2023-01-08T08:28:53.399Z,100064.38
2023-01-08T08:31:25.307Z,100064.38
2023-01-08T08:33:56.899Z,100055.78
2023-01-08T08:36:28.781Z,100050.50
2023-01-08T08:39:00.394Z,100048.81
2023-01-08T08:41:32.330Z,100046.56
2023-01-08T08:44:03.855Z,100044.72
2023-01-08T08:46:35.785Z,100044.09
2023-01-08T08:49:07.443Z,100053.47
2023-01-08T08:51:39.355Z,100049.97
2023-01-08T08:54:10.901Z,100043.00
2023-01-08T08:56:42.532Z,100042.19
2023-01-08T08:59:14.123Z,100043.03
2023-01-08T09:01:45.992Z,100033.97
2023-01-08T09:04:17.918Z,100022.47
2023-01-08T09:06:49.466Z,100026.75
2023-01-08T09:09:21.332Z,100006.66
2023-01-08T09:11:52.900Z,99993.03
2023-01-08T09:14:24.493Z,99992.72
2023-01-08T09:16:56.056Z,100005.16
2023-01-08T09:19:27.975Z,100001.22
2023-01-08T09:21:59.505Z,100007.47
2023-01-08T09:24:34.604Z,100013.22
2023-01-08T09:27:06.168Z,100024.06
2023-01-08T09:29:38.046Z,100018.31
2023-01-08T09:32:09.610Z,100030.13
2023-01-08T09:34:41.547Z,100038.06
2023-01-08T09:37:13.053Z,100035.25
2023-01-08T09:39:51.029Z,100042.63
2023-01-08T09:42:25.846Z,100035.94
2023-01-08T09:44:57.865Z,100056.34
2023-01-08T09:47:29.553Z,100060.44
2023-01-08T09:50:01.607Z,100058.22
2023-01-08T09:52:33.211Z,100061.63
2023-01-08T09:55:05.065Z,100064.56
2023-01-08T09:57:36.920Z,100048.44
2023-01-08T10:00:08.452Z,100053.91
2023-01-08T10:02:40.513Z,100039.50
2023-01-08T10:05:12.215Z,100042.19
2023-01-08T10:07:44.166Z,100024.22
2023-01-08T10:10:15.693Z,100018.75
2023-01-08T10:12:47.624Z,100023.41
2023-01-08T10:15:19.157Z,100009.75
2023-01-08T10:17:51.439Z,100005.41
2023-01-08T10:20:23.605Z,100010.16
2023-01-08T10:22:55.300Z,100015.09
2023-01-08T10:25:27.325Z,100011.78
2023-01-08T10:27:59.112Z,100011.03
2023-01-08T10:30:31.027Z,100011.88
2023-01-08T10:33:02.547Z,99843.66
2023-01-08T10:35:34.426Z,100004.50
2023-01-08T10:38:05.999Z,100003.69
2023-01-08T10:40:37.926Z,99997.78
2023-01-08T10:43:09.507Z,100012.25
2023-01-08T10:45:42.388Z,100007.16
2023-01-08T10:48:13.901Z,99889.06
2023-01-08T10:50:45.788Z,100001.00
2023-01-08T10:53:17.310Z,99989.94
2023-01-08T10:55:48.837Z,99991.69
2023-01-08T10:58:20.389Z,99985.88
2023-01-08T11:00:51.932Z,99978.13
2023-01-08T11:03:23.454Z,99979.84
2023-01-08T11:05:55.319Z,99980.72
2023-01-08T11:08:26.917Z,99975.13
2023-01-08T11:10:58.789Z,99966.13
2023-01-08T11:13:30.324Z,99970.38
2023-01-08T11:16:01.980Z,99960.56
2023-01-08T11:18:33.593Z,99958.78
2023-01-08T11:21:05.137Z,99951.63
2023-01-08T11:23:36.670Z,99956.94
2023-01-08T11:26:08.318Z,99947.38
2023-01-08T11:28:39.919Z,99951.09
2023-01-08T11:31:11.844Z,99940.22
2023-01-08T11:33:43.502Z,99941.69
2023-01-08T11:36:15.546Z,99941.25
2023-01-08T11:38:47.078Z,99946.22
2023-01-08T11:41:18.869Z,99952.88
2023-01-08T11:43:50.494Z,99943.44
2023-01-08T11:46:22.492Z,99747.44
2023-01-08T11:48:54.035Z,99926.25
2023-01-08T11:51:26.041Z,99928.13
2023-01-08T11:53:59.471Z,99928.56
2023-01-08T11:56:31.372Z,99926.06
2023-01-08T11:59:02.947Z,99919.28
2023-01-08T12:01:34.725Z,99916.09
2023-01-08T12:04:06.519Z,99913.22
2023-01-08T12:06:38.015Z,99909.53
2023-01-08T12:09:09.908Z,99902.13
2023-01-08T12:11:41.459Z,99902.09
2023-01-08T12:14:13.017Z,99895.28
2023-01-08T12:16:44.599Z,99893.91
2023-01-08T12:19:16.492Z,99900.25
2023-01-08T12:21:48.015Z,99900.00
2023-01-08T12:24:19.589Z,99893.50
2023-01-08T12:26:51.181Z,99883.13
2023-01-08T12:29:23.060Z,99877.34
2023-01-08T12:32:02.607Z,99869.16
2023-01-08T12:34:36.337Z,99870.19
2023-01-08T12:37:07.920Z,99877.63
2023-01-08T12:39:39.881Z,99885.63
2023-01-08T12:42:11.453Z,99871.50
2023-01-08T12:44:42.980Z,99873.78
2023-01-08T12:47:14.496Z,99878.97
2023-01-08T12:49:47.474Z,99891.09
2023-01-08T12:52:19.436Z,99880.59
2023-01-08T12:54:51.312Z,99874.81
2023-01-08T12:57:22.842Z,99876.56
2023-01-08T12:59:54.870Z,99880.13
2023-01-08T13:02:26.500Z,99871.06
2023-01-08T13:04:58.470Z,99871.06
2023-01-08T13:07:32.808Z,99870.59
2023-01-08T13:10:04.701Z,99863.91
2023-01-08T13:12:36.245Z,99873.59
2023-01-08T13:15:08.151Z,99874.28
2023-01-08T13:17:40.706Z,99871.16
2023-01-08T13:20:13.961Z,99865.28
2023-01-08T13:22:45.508Z,99858.03
2023-01-08T13:25:17.160Z,99855.47
2023-01-08T13:27:48.670Z,99851.63
2023-01-08T13:30:20.496Z,99848.53
2023-01-08T13:32:52.139Z,99855.84
2023-01-08T13:35:24.010Z,99845.66
2023-01-08T13:37:55.523Z,99849.94
2023-01-08T13:40:27.526Z,99845.53
2023-01-08T13:42:59.118Z,99848.06
2023-01-08T13:45:30.677Z,99850.13
2023-01-08T13:48:02.328Z,99849.41
2023-01-08T13:50:35.460Z,99852.41
2023-01-08T13:53:07.347Z,99846.00
2023-01-08T13:55:39.177Z,99849.09
2023-01-08T13:58:10.730Z,99844.22
2023-01-08T14:00:42.280Z,99847.91
2023-01-08T14:03:13.838Z,99840.19
2023-01-08T14:05:45.888Z,99833.97
2023-01-08T14:08:17.430Z,99834.97
2023-01-08T14:10:49.277Z,99840.41
2023-01-08T14:13:21.146Z,99833.56
2023-01-08T14:15:52.671Z,99834.97
2023-01-08T14:18:24.645Z,99833.78
2023-01-08T14:20:56.228Z,99832.53
2023-01-08T14:23:28.000Z,99823.91
2023-01-08T14:25:59.565Z,99827.44
2023-01-08T14:28:31.147Z,99829.88
2023-01-08T14:31:02.802Z,99822.94
2023-01-08T14:33:34.353Z,99826.94
2023-01-08T14:36:05.876Z,99824.72
2023-01-08T14:38:37.444Z,99825.97
2023-01-08T14:41:08.973Z,99823.31
2023-01-08T14:43:40.508Z,99830.84
2023-01-08T14:46:12.090Z,99835.13
2023-01-08T14:48:43.798Z,99832.53
2023-01-08T14:51:17.447Z,99829.25
2023-01-08T14:53:48.980Z,99825.41
2023-01-08T14:56:20.562Z,99825.00
2023-01-08T14:58:52.904Z,99823.16
2023-01-08T15:01:24.590Z,99824.78
2023-01-08T15:03:56.191Z,99815.63
2023-01-08T15:06:27.730Z,99810.63
2023-01-08T15:09:00.103Z,99802.47
2023-01-08T15:11:32.026Z,99800.16
2023-01-08T15:14:03.947Z,99804.59
2023-01-08T15:16:38.039Z,99818.22
2023-01-08T15:19:09.637Z,99759.06
2023-01-08T15:21:41.198Z,99813.72
2023-01-08T15:24:13.067Z,99815.41
2023-01-08T15:26:44.591Z,99805.63
2023-01-08T15:29:16.145Z,99809.31
2023-01-08T15:31:47.760Z,99811.97
2023-01-08T15:34:19.649Z,99808.50
2023-01-08T15:36:51.250Z,99808.13
2023-01-08T15:39:23.140Z,99787.84
2023-01-08T15:42:13.224Z,99804.06
2023-01-08T15:44:45.275Z,99811.59
2023-01-08T15:47:17.262Z,99815.06
2023-01-08T15:49:48.808Z,99818.72
2023-01-08T15:52:20.755Z,99816.06
2023-01-08T15:54:52.280Z,99821.97
2023-01-08T15:57:24.176Z,99820.94
2023-01-08T15:59:55.852Z,99826.25
2023-01-08T16:02:27.904Z,99817.47
2023-01-08T16:04:59.490Z,99817.03
2023-01-08T16:07:31.432Z,99813.34
2023-01-08T16:10:02.955Z,99817.41
2023-01-08T16:12:34.872Z,99819.69
2023-01-08T16:15:09.591Z,99823.75
2023-01-08T16:17:41.243Z,99815.78
2023-01-08T16:20:12.883Z,99810.03
2023-01-08T16:22:44.997Z,99805.56
2023-01-08T16:25:16.523Z,99809.81
2023-01-08T16:27:48.371Z,99817.56
2023-01-08T16:30:19.934Z,99808.78
2023-01-08T16:32:51.570Z,99810.41
2023-01-08T16:35:23.138Z,99806.38
2023-01-08T16:37:55.954Z,99803.72
2023-01-08T16:40:27.517Z,99797.97
2023-01-08T16:42:59.387Z,99796.78
2023-01-08T16:45:30.913Z,99797.59
2023-01-08T16:48:03.360Z,99793.41
2023-01-08T16:50:34.892Z,99788.47
2023-01-08T16:53:06.854Z,99791.34
2023-01-08T16:55:38.426Z,99793.78
2023-01-08T16:58:10.089Z,99780.28
2023-01-08T17:00:41.714Z,99779.94
2023-01-08T17:03:13.567Z,99788.91
2023-01-08T17:05:45.093Z,99781.53
2023-01-08T17:08:17.298Z,99770.56
2023-01-08T17:10:49.217Z,99772.19
2023-01-08T17:13:20.807Z,99771.75
2023-01-08T17:15:53.414Z,99764.38
2023-01-08T17:18:25.057Z,99759.75
2023-01-08T17:20:57.011Z,99760.19
2023-01-08T17:23:28.977Z,99754.75
2023-01-08T17:26:00.831Z,99750.31
2023-01-08T17:28:32.433Z,99758.53
2023-01-08T17:31:04.618Z,99756.56
2023-01-08T17:33:36.183Z,99758.03
2023-01-08T17:36:07.699Z,99755.38
2023-01-08T17:38:39.237Z,99748.91
2023-01-08T17:41:10.984Z,99757.50
2023-01-08T17:43:42.527Z,99757.13
2023-01-08T17:46:14.367Z,99751.84
2023-01-08T17:48:46.023Z,99749.19
2023-01-08T17:51:17.863Z,99736.75
2023-01-08T17:53:49.854Z,99742.84
2023-01-08T17:56:21.863Z,99735.56
2023-01-08T17:58:53.471Z,99738.66
2023-01-08T18:01:25.371Z,99737.41
2023-01-08T18:03:57.043Z,99735.34
2023-01-08T18:06:28.655Z,99735.34
2023-01-08T18:09:00.278Z,99732.47
2023-01-08T18:11:33.460Z,99739.19
2023-01-08T18:14:04.969Z,99738.16
2023-01-08T18:16:36.712Z,99736.69
2023-01-08T18:19:08.343Z,99733.00
2023-01-08T18:21:40.273Z,99741.53
2023-01-08T18:24:11.827Z,99732.13
2023-01-08T18:26:43.719Z,99729.69
2023-01-08T18:29:15.233Z,99746.63
2023-01-08T18:31:47.131Z,99731.53
2023-01-08T18:34:18.644Z,99732.13
2023-01-08T18:36:50.629Z,99733.97
2023-01-08T18:39:22.488Z,99725.41
2023-01-08T18:42:12.899Z,99714.00
2023-01-08T18:44:44.485Z,99721.00
2023-01-08T18:47:16.494Z,99714.97
2023-01-08T18:49:48.164Z,99709.06
2023-01-08T18:52:19.761Z,99707.69
2023-01-08T18:54:51.369Z,99700.97
2023-01-08T18:57:23.223Z,99698.97
2023-01-08T18:59:54.878Z,99701.81
2023-01-08T19:02:45.107Z,99699.84
2023-01-08T19:05:17.842Z,99710.06
2023-01-08T19:07:49.407Z,99700.34
2023-01-08T19:10:21.806Z,99699.16
2023-01-08T19:12:53.497Z,99699.81
2023-01-08T19:15:25.897Z,99694.31
2023-01-08T19:17:57.436Z,99682.31
2023-01-08T19:20:29.294Z,99687.97
2023-01-08T19:23:00.883Z,99689.22
2023-01-08T19:25:32.655Z,99689.00
2023-01-08T19:28:04.208Z,99676.19
2023-01-08T19:30:36.128Z,99685.56
2023-01-08T19:33:07.656Z,99682.69
2023-01-08T19:35:39.550Z,99684.97
2023-01-08T19:38:11.190Z,99690.63
2023-01-08T19:40:43.022Z,99677.97
2023-01-08T19:43:33.488Z,99689.38
2023-01-08T19:46:06.186Z,99686.94
2023-01-08T19:48:37.845Z,99687.75
2023-01-08T19:51:09.650Z,99682.31
2023-01-08T19:53:41.248Z,99684.16
2023-01-08T19:56:13.185Z,99680.69
2023-01-08T19:58:44.746Z,99682.16
2023-01-08T20:01:16.816Z,99674.03
2023-01-08T20:03:48.442Z,99669.16
2023-01-08T20:06:20.520Z,99663.06
2023-01-08T20:08:53.294Z,99660.84
2023-01-08T20:11:25.177Z,99654.16
2023-01-08T20:14:00.269Z,99655.84
2023-01-08T20:16:32.370Z,99658.53
2023-01-08T20:19:04.641Z,99654.72
2023-01-08T20:21:36.694Z,99649.84
2023-01-08T20:24:13.623Z,99651.09
2023-01-08T20:26:45.796Z,99647.22
2023-01-08T20:29:18.124Z,99639.50
2023-01-08T20:31:50.103Z,99646.44
2023-01-08T20:34:21.678Z,99647.91
2023-01-08T20:36:53.708Z,99641.44
2023-01-08T20:39:25.270Z,99643.31
2023-01-08T20:42:04.380Z,99635.81
2023-01-08T20:44:36.426Z,99630.53
2023-01-08T20:47:08.297Z,99624.41
2023-01-08T20:49:39.959Z,99622.00
2023-01-08T20:52:11.585Z,99622.63
2023-01-08T20:54:43.737Z,99619.56
2023-01-08T20:57:15.405Z,99619.34
2023-01-08T20:59:47.028Z,99621.56
2023-01-08T21:02:19.745Z,99612.97
2023-01-08T21:04:51.821Z,99623.34
2023-01-08T21:07:23.406Z,99619.03
2023-01-08T21:09:54.980Z,99618.59
2023-01-08T21:12:26.505Z,99610.44
2023-01-08T21:14:59.177Z,99610.84
2023-01-08T21:17:30.726Z,99613.50
2023-01-08T21:20:03.969Z,99613.91
2023-01-08T21:22:35.582Z,99611.22
2023-01-08T21:25:07.166Z,99601.03
2023-01-08T21:27:38.775Z,99596.94
2023-01-08T21:30:10.353Z,99591.50
2023-01-08T21:32:41.872Z,99588.19
2023-01-08T21:35:13.489Z,99583.72
2023-01-08T21:37:45.024Z,99591.44
2023-01-08T21:40:16.583Z,99595.09
2023-01-08T21:43:06.643Z,99594.88
2023-01-08T21:45:38.213Z,99591.81
2023-01-08T21:48:09.930Z,99595.09
2023-01-08T21:50:41.874Z,99582.41
2023-01-08T21:53:33.198Z,99579.38
2023-01-08T21:56:05.754Z,99567.56
2023-01-08T21:58:38.339Z,99559.03
2023-01-08T22:01:10.140Z,99566.66
2023-01-08T22:03:42.229Z,99563.88
2023-01-08T22:06:13.810Z,99560.63
2023-01-08T22:08:45.439Z,99552.91
2023-01-08T22:11:16.988Z,99539.41
2023-01-08T22:13:48.527Z,99541.81
2023-01-08T22:16:20.095Z,99539.19
2023-01-08T22:18:52.068Z,99536.59
2023-01-08T22:21:23.613Z,99546.22
2023-01-08T22:23:55.151Z,99537.03
2023-01-08T22:26:26.789Z,99536.44
2023-01-08T22:28:58.320Z,99540.56
2023-01-08T22:31:29.929Z,99534.25
2023-01-08T22:34:01.535Z,99531.22
2023-01-08T22:36:33.120Z,99530.25
2023-01-08T22:39:04.681Z,99538.63
2023-01-08T22:41:36.229Z,99535.56
2023-01-08T22:44:09.406Z,99523.88
2023-01-08T22:46:40.940Z,99529.59
2023-01-08T22:49:13.332Z,99536.56
2023-01-08T22:51:45.004Z,99529.06
2023-01-08T22:54:18.375Z,99520.53
2023-01-08T22:56:49.915Z,99519.16
2023-01-08T22:59:21.794Z,99512.03
2023-01-08T23:01:53.356Z,99510.44
2023-01-08T23:04:25.322Z,99500.94
2023-01-08T23:06:56.918Z,99495.72
2023-01-08T23:09:28.995Z,99493.13
2023-01-08T23:12:00.571Z,99492.16
2023-01-08T23:14:32.466Z,99488.91
2023-01-08T23:17:04.046Z,99491.59
2023-01-08T23:19:35.954Z,99490.19
2023-01-08T23:22:07.472Z,99480.25
2023-01-08T23:24:39.371Z,99487.81
2023-01-08T23:27:10.939Z,99491.09
2023-01-08T23:29:42.900Z,99490.31
2023-01-08T23:32:14.505Z,99475.34
2023-01-08T23:34:46.060Z,99472.91
2023-01-08T23:37:17.838Z,99472.53
2023-01-08T23:39:49.425Z,99454.28
2023-01-08T23:42:21.120Z,99452.06
2023-01-08T23:44:53.048Z,99462.44
2023-01-08T23:47:24.598Z,99461.84
2023-01-08T23:49:56.156Z,99454.94
2023-01-08T23:52:27.745Z,99451.94
2023-01-08T23:54:59.318Z,99449.28
2023-01-08T23:57:30.884Z,99448.69
